Time;durP1;ratioP1;P1;durP2;ratioP2;P2;SDS_P1;SDS_P2;PMS_P1;PMS_P2;Temp;Humidity;BMP_temperature;BMP_pressure;BME280_temperature;BME280_humidity;BME280_pressure;Samples;Min_cycle;Max_cycle;Signal;HPM_P1;HPM_P2
2022/09/06 00:01:05;;;;;;;2.88;1.50;;;19.90;99.90;;;;;;5061746;28;25095;-73
2022/09/06 00:03:31;;;;;;;2.78;1.27;;;19.90;99.90;;;;;;5063805;28;25064;-72
2022/09/06 00:05:56;;;;;;;2.30;1.50;;;19.90;99.90;;;;;;5052978;28;25063;-72
2022/09/06 00:08:22;;;;;;;2.00;1.65;;;19.90;99.90;;;;;;5065736;28;25150;-71
2022/09/06 00:10:56;;;;;;;1.77;1.58;;;19.80;99.90;;;;;;5062994;28;25065;-72
2022/09/06 00:13:22;;;;;;;1.88;1.33;;;20.00;99.90;;;;;;5056151;28;25065;-71
2022/09/06 00:15:47;;;;;;;3.38;1.50;;;19.70;99.90;;;;;;5054669;28;25054;-71
2022/09/06 00:18:13;;;;;;;4.30;1.90;;;19.70;99.90;;;;;;5059370;28;25096;-72
2022/09/06 00:20:40;;;;;;;2.30;1.75;;;19.70;99.90;;;;;;5062592;28;25078;-71
2022/09/06 00:23:05;;;;;;;4.47;2.05;;;19.60;99.90;;;;;;5061638;28;25050;-72
2022/09/06 00:25:32;;;;;;;3.80;1.45;;;19.70;99.90;;;;;;5070451;28;25139;-71
2022/09/06 00:28:01;;;;;;;5.10;1.80;;;19.80;99.90;;;;;;5059856;28;25072;-72
2022/09/06 00:30:28;;;;;;;4.50;1.98;;;19.70;99.90;;;;;;5059394;28;25100;-73
2022/09/06 00:32:54;;;;;;;5.22;2.95;;;19.70;99.90;;;;;;5061032;28;25049;-73
2022/09/06 00:35:21;;;;;;;6.57;2.83;;;19.80;99.90;;;;;;5065404;28;25081;-72
2022/09/06 00:37:46;;;;;;;5.10;2.28;;;19.90;99.90;;;;;;5052676;28;25057;-73
2022/09/06 00:40:13;;;;;;;4.15;2.65;;;20.00;99.90;;;;;;5061692;28;25060;-73
2022/09/06 00:42:39;;;;;;;4.70;2.25;;;20.10;99.90;;;;;;5060839;28;25062;-73
2022/09/06 00:45:06;;;;;;;4.57;2.03;;;20.10;99.90;;;;;;5052501;28;25115;-72
2022/09/06 00:47:34;;;;;;;5.40;2.13;;;20.10;99.90;;;;;;5053088;28;25236;-73
2022/09/06 00:50:01;;;;;;;2.28;1.98;;;20.10;99.90;;;;;;5049756;28;25078;-73
2022/09/06 00:52:27;;;;;;;2.42;2.22;;;20.10;99.90;;;;;;5063001;28;25059;-72
2022/09/06 00:54:54;;;;;;;3.35;2.20;;;20.20;99.90;;;;;;5061051;28;25075;-72
2022/09/06 00:57:20;;;;;;;5.35;2.85;;;20.20;99.90;;;;;;5058507;28;25061;-73
2022/09/06 00:59:46;;;;;;;4.93;3.03;;;20.30;99.90;;;;;;5063353;28;25055;-73
2022/09/06 01:02:12;;;;;;;3.17;2.55;;;20.00;99.90;;;;;;5057137;28;25077;-72
2022/09/06 01:04:41;;;;;;;4.35;2.53;;;19.80;99.90;;;;;;5069796;28;25066;-71
2022/09/06 01:07:47;;;;;;;3.40;2.85;;;19.80;99.90;;;;;;5062811;28;25140;-71
2022/09/06 01:10:27;;;;;;;2.42;2.22;;;19.80;99.90;;;;;;5018829;28;25163;-73
2022/09/06 01:13:18;;;;;;;4.95;2.60;;;19.70;99.90;;;;;;5063420;28;25065;-73
2022/09/06 01:15:59;;;;;;;4.30;2.80;;;19.70;99.90;;;;;;5062609;28;25051;-72
2022/09/06 01:18:57;;;;;;;6.47;2.92;;;19.80;99.90;;;;;;5050394;28;25045;-73
2022/09/06 01:21:51;;;;;;;5.18;3.00;;;20.00;99.90;;;;;;5067349;28;25064;-72
2022/09/06 01:24:56;;;;;;;4.80;2.90;;;19.90;99.90;;;;;;5062618;28;25069;-72
2022/09/06 01:27:33;;;;;;;2.80;2.58;;;19.70;99.90;;;;;;5072285;28;25105;-72
2022/09/06 01:30:06;;;;;;;7.35;3.20;;;19.70;99.90;;;;;;5058436;28;25081;-73
2022/09/06 01:32:57;;;;;;;3.03;2.72;;;19.80;99.90;;;;;;5067079;28;25057;-72
2022/09/06 01:35:31;;;;;;;4.90;3.70;;;19.80;99.90;;;;;;5063887;28;25129;-73
2022/09/06 01:37:59;;;;;;;5.57;3.05;;;19.80;99.90;;;;;;5064023;28;25068;-74
2022/09/06 01:40:24;;;;;;;4.30;2.88;;;19.70;99.90;;;;;;5064291;28;25094;-74
2022/09/06 01:42:52;;;;;;;6.32;3.83;;;19.70;99.90;;;;;;5069434;28;25089;-73
2022/09/06 01:45:22;;;;;;;6.10;4.00;;;19.70;99.90;;;;;;5067663;28;25051;-73
2022/09/06 01:48:05;;;;;;;5.10;3.15;;;19.70;99.90;;;;;;5066345;28;25058;-73
2022/09/06 01:50:55;;;;;;;6.55;3.30;;;19.70;99.90;;;;;;5062874;28;25108;-72
2022/09/06 01:53:59;;;;;;;4.13;3.53;;;19.60;99.90;;;;;;5061910;28;25068;-73
2022/09/06 01:56:38;;;;;;;5.45;3.25;;;19.40;99.90;;;;;;5070208;28;25139;-73
2022/09/06 01:59:42;;;;;;;5.18;4.22;;;19.50;99.90;;;;;;5071982;28;25083;-73
2022/09/06 02:02:23;;;;;;;4.22;3.53;;;19.50;99.90;;;;;;5062949;28;25055;-73
2022/09/06 02:05:00;;;;;;;6.07;3.88;;;19.40;99.90;;;;;;5064800;28;25056;-73
2022/09/06 02:07:28;;;;;;;5.35;4.00;;;19.40;99.90;;;;;;5063925;28;25154;-74
2022/09/06 02:10:07;;;;;;;5.38;3.58;;;19.30;99.90;;;;;;5062401;28;25083;-73
2022/09/06 02:12:37;;;;;;;5.60;4.05;;;19.40;99.90;;;;;;5064114;28;25076;-73
2022/09/06 02:15:10;;;;;;;5.90;4.25;;;19.50;99.90;;;;;;5069184;28;25058;-73
2022/09/06 02:17:41;;;;;;;4.80;3.88;;;19.50;99.90;;;;;;5063896;28;25110;-74
2022/09/06 02:20:22;;;;;;;6.35;4.38;;;19.40;99.90;;;;;;5058703;28;25083;-74
2022/09/06 02:22:51;;;;;;;6.88;3.95;;;19.50;99.90;;;;;;5056311;28;25072;-73
2022/09/06 02:25:38;;;;;;;6.18;4.35;;;19.50;99.90;;;;;;5062804;28;25070;-72
2022/09/06 02:28:06;;;;;;;7.85;4.30;;;19.40;99.90;;;;;;5068533;28;25067;-72
2022/09/06 02:30:38;;;;;;;10.70;5.30;;;19.40;99.90;;;;;;5067223;28;25074;-72
2022/09/06 02:33:09;;;;;;;6.95;4.45;;;19.40;99.90;;;;;;5061107;28;25100;-73
2022/09/06 02:35:46;;;;;;;8.32;4.97;;;19.40;99.90;;;;;;5057774;28;25160;-72
2022/09/06 02:38:13;;;;;;;6.22;4.68;;;19.40;99.90;;;;;;5069721;28;25105;-72
2022/09/06 02:40:39;;;;;;;6.28;4.35;;;19.50;99.90;;;;;;5060982;28;25096;-72
2022/09/06 02:43:05;;;;;;;7.05;5.07;;;19.50;99.90;;;;;;5075963;28;25147;-72
2022/09/06 02:45:31;;;;;;;10.73;5.25;;;19.40;99.90;;;;;;5079519;28;25063;-73
2022/09/06 02:47:56;;;;;;;6.25;5.03;;;19.30;99.90;;;;;;5082235;28;25108;-72
2022/09/06 02:50:22;;;;;;;8.57;5.30;;;19.40;99.90;;;;;;5086859;28;25082;-72
2022/09/06 02:53:04;;;;;;;7.40;4.97;;;19.30;99.90;;;;;;5079398;28;25059;-73
2022/09/06 02:55:30;;;;;;;9.13;5.28;;;19.40;99.90;;;;;;5080206;28;25079;-72
2022/09/06 02:57:55;;;;;;;8.52;5.55;;;19.30;99.90;;;;;;5069833;28;25082;-72
2022/09/06 03:00:21;;;;;;;7.30;5.28;;;19.30;99.90;;;;;;5075138;28;25106;-71
2022/09/06 03:02:46;;;;;;;10.20;6.10;;;19.30;99.90;;;;;;5065507;28;25078;-72
2022/09/06 03:05:12;;;;;;;10.52;6.28;;;19.30;99.90;;;;;;5071536;28;25116;-71
2022/09/06 03:07:38;;;;;;;7.90;5.78;;;19.20;99.90;;;;;;5055908;28;25182;-72
2022/09/06 03:10:04;;;;;;;6.70;5.18;;;19.20;99.90;;;;;;5063455;28;25067;-72
2022/09/06 03:12:29;;;;;;;10.32;5.30;;;19.10;99.90;;;;;;5058791;28;25058;-70
2022/09/06 03:14:55;;;;;;;8.30;5.18;;;19.20;99.90;;;;;;5064458;28;25057;-72
2022/09/06 03:17:21;;;;;;;9.65;5.80;;;19.20;99.90;;;;;;5060587;28;25147;-71
2022/09/06 03:19:46;;;;;;;9.85;6.57;;;19.20;99.90;;;;;;5068280;28;25075;-72
2022/09/06 03:22:12;;;;;;;9.20;5.68;;;19.20;99.90;;;;;;5060053;28;25157;-73
2022/09/06 03:24:37;;;;;;;10.35;5.68;;;19.20;99.90;;;;;;5054941;28;25060;-72
2022/09/06 03:27:03;;;;;;;9.43;5.97;;;19.30;99.90;;;;;;5058988;28;25100;-72
2022/09/06 03:29:29;;;;;;;10.85;6.05;;;19.30;99.90;;;;;;5064356;28;25079;-72
2022/09/06 03:31:54;;;;;;;11.23;5.63;;;19.30;99.90;;;;;;5075995;28;25058;-72
2022/09/06 03:34:20;;;;;;;9.50;6.03;;;19.30;99.90;;;;;;5069969;28;25121;-70
2022/09/06 03:36:45;;;;;;;7.82;5.97;;;19.40;99.90;;;;;;5060210;28;25148;-71
2022/09/06 03:39:11;;;;;;;8.75;5.60;;;19.50;99.90;;;;;;5066071;28;25095;-72
2022/09/06 03:41:37;;;;;;;10.20;5.70;;;19.40;99.90;;;;;;5075796;28;25124;-71
2022/09/06 03:44:03;;;;;;;8.68;5.53;;;19.50;99.90;;;;;;5079182;28;25082;-73
2022/09/06 03:46:29;;;;;;;7.03;5.38;;;19.60;99.90;;;;;;5095286;28;25072;-71
2022/09/06 03:48:58;;;;;;;7.90;5.13;;;19.60;99.90;;;;;;5069084;28;25115;-71
2022/09/06 03:51:24;;;;;;;7.50;5.47;;;19.60;99.90;;;;;;5069958;28;25071;-71
2022/09/06 03:53:50;;;;;;;10.90;6.47;;;19.60;99.90;;;;;;5060311;28;25076;-71
2022/09/06 03:56:15;;;;;;;9.73;5.88;;;19.60;99.90;;;;;;5060120;28;25103;-72
2022/09/06 03:58:41;;;;;;;9.10;5.63;;;19.70;99.90;;;;;;5054002;28;25084;-72
2022/09/06 04:01:09;;;;;;;10.43;6.53;;;19.70;99.90;;;;;;5056962;28;25098;-71
2022/09/06 04:03:35;;;;;;;9.40;5.30;;;19.70;99.90;;;;;;5061823;28;25059;-72
2022/09/06 04:06:02;;;;;;;10.93;6.25;;;19.70;99.90;;;;;;5052829;28;25069;-69
2022/09/06 04:08:28;;;;;;;8.35;6.03;;;19.70;99.90;;;;;;5057313;28;25074;-70
2022/09/06 04:10:55;;;;;;;9.27;6.35;;;19.60;99.90;;;;;;5056770;28;25059;-71
2022/09/06 04:13:22;;;;;;;10.95;6.25;;;19.70;99.90;;;;;;5057078;28;25067;-71
2022/09/06 04:15:48;;;;;;;10.55;5.95;;;19.60;99.90;;;;;;5051087;28;25057;-72
2022/09/06 04:18:14;;;;;;;9.38;6.55;;;19.60;99.90;;;;;;5060808;28;25059;-70
2022/09/06 04:20:40;;;;;;;17.50;6.55;;;19.60;99.90;;;;;;5050101;28;25152;-70
2022/09/06 04:23:06;;;;;;;9.70;6.75;;;19.70;99.90;;;;;;5054469;28;25076;-71
2022/09/06 04:25:32;;;;;;;7.93;5.70;;;19.60;99.90;;;;;;5057963;28;25175;-71
2022/09/06 04:27:58;;;;;;;7.82;5.25;;;19.50;99.90;;;;;;5055104;28;25115;-72
2022/09/06 04:30:23;;;;;;;8.30;5.50;;;19.60;99.90;;;;;;5046612;28;25063;-71
2022/09/06 04:32:49;;;;;;;11.05;6.60;;;19.40;99.90;;;;;;5050577;28;25086;-70
2022/09/06 04:35:14;;;;;;;11.85;6.10;;;19.30;99.90;;;;;;5063250;28;25065;-71
2022/09/06 04:37:40;;;;;;;9.68;6.82;;;19.30;99.90;;;;;;5057087;28;25107;-71
2022/09/06 04:40:06;;;;;;;13.70;6.18;;;19.20;99.90;;;;;;5055172;28;25135;-71
2022/09/06 04:42:32;;;;;;;9.95;6.97;;;19.30;99.90;;;;;;5050443;28;25134;-71
2022/09/06 04:44:57;;;;;;;15.13;7.10;;;19.20;99.90;;;;;;5053638;28;25048;-71
2022/09/06 04:47:24;;;;;;;10.55;7.15;;;19.20;99.90;;;;;;5059289;28;25089;-71
2022/09/06 04:49:49;;;;;;;9.05;6.70;;;19.20;99.90;;;;;;5061833;28;25071;-70
2022/09/06 04:52:15;;;;;;;19.88;7.65;;;19.20;99.90;;;;;;5059759;28;25062;-72
2022/09/06 04:54:41;;;;;;;12.77;7.30;;;19.20;99.90;;;;;;5054106;28;25090;-70
2022/09/06 04:57:07;;;;;;;9.20;7.30;;;19.30;99.90;;;;;;5054066;28;25136;-72
2022/09/06 04:59:33;;;;;;;11.43;7.65;;;19.40;99.90;;;;;;5057196;28;25135;-70
2022/09/06 05:01:58;;;;;;;9.93;7.28;;;19.40;99.90;;;;;;5060197;28;25056;-70
2022/09/06 05:04:24;;;;;;;12.10;7.63;;;19.20;99.90;;;;;;5058033;28;25054;-71
2022/09/06 05:06:59;;;;;;;12.85;7.43;;;19.30;99.90;;;;;;5051789;28;25102;-71
2022/09/06 05:09:25;;;;;;;13.30;8.02;;;19.20;99.90;;;;;;5064405;28;25170;-72
2022/09/06 05:11:50;;;;;;;12.35;8.25;;;19.30;99.90;;;;;;5060150;28;25085;-71
2022/09/06 05:14:16;;;;;;;12.20;7.88;;;19.50;99.90;;;;;;5061009;28;25091;-71
2022/09/06 05:16:44;;;;;;;11.77;7.40;;;19.40;99.90;;;;;;5069419;28;25082;-71
2022/09/06 05:19:09;;;;;;;14.43;8.20;;;19.40;99.90;;;;;;5065894;28;25050;-72
2022/09/06 05:21:35;;;;;;;11.30;7.72;;;19.40;99.90;;;;;;5062446;28;25055;-72
2022/09/06 05:24:00;;;;;;;12.25;8.07;;;19.30;99.90;;;;;;5056153;28;25115;-70
2022/09/06 05:26:26;;;;;;;12.68;7.78;;;19.30;99.90;;;;;;5057763;28;25074;-71
2022/09/06 05:28:51;;;;;;;13.43;8.18;;;19.40;99.90;;;;;;5055415;28;25104;-71
2022/09/06 05:31:29;;;;;;;14.57;7.95;;;19.50;99.90;;;;;;5063207;28;25086;-69
2022/09/06 05:33:55;;;;;;;11.32;7.10;;;19.60;99.90;;;;;;5067307;28;25122;-70
2022/09/06 05:36:22;;;;;;;11.40;8.02;;;19.50;99.90;;;;;;5050891;28;25075;-70
2022/09/06 05:38:49;;;;;;;10.35;7.53;;;19.40;99.90;;;;;;5062208;28;25063;-71
2022/09/06 05:41:14;;;;;;;14.80;8.02;;;19.40;99.90;;;;;;5060692;28;25079;-70
2022/09/06 05:43:40;;;;;;;12.70;8.23;;;19.50;99.90;;;;;;5058459;28;25131;-70
2022/09/06 05:46:06;;;;;;;13.73;8.43;;;19.70;99.90;;;;;;5060003;28;25064;-74
2022/09/06 05:48:31;;;;;;;12.65;7.57;;;19.80;99.90;;;;;;5057386;28;25080;-70
2022/09/06 05:51:01;;;;;;;12.77;8.35;;;19.70;99.90;;;;;;5062614;28;25149;-71
2022/09/06 05:53:33;;;;;;;14.80;7.95;;;19.50;99.90;;;;;;5062813;28;25086;-71
2022/09/06 05:55:58;;;;;;;17.65;8.35;;;19.40;99.90;;;;;;5072510;28;25151;-71
2022/09/06 05:58:24;;;;;;;16.00;8.68;;;19.50;99.90;;;;;;5061194;28;25156;-72
2022/09/06 06:00:50;;;;;;;13.75;8.65;;;19.60;99.90;;;;;;5054315;28;25056;-71
2022/09/06 06:03:15;;;;;;;17.25;9.05;;;19.70;99.90;;;;;;5057360;28;25130;-71
2022/09/06 06:05:46;;;;;;;12.40;8.75;;;19.80;99.90;;;;;;5066797;28;25064;-72
2022/09/06 06:08:11;;;;;;;15.10;8.18;;;19.80;99.90;;;;;;5055402;28;25067;-72
2022/09/06 06:10:38;;;;;;;15.65;8.65;;;19.80;99.90;;;;;;5050006;28;25158;-70
2022/09/06 06:13:03;;;;;;;19.13;9.02;;;19.90;99.90;;;;;;5057908;28;25074;-70
2022/09/06 06:15:31;;;;;;;11.95;8.05;;;19.90;99.90;;;;;;5055630;28;25048;-71
2022/09/06 06:17:56;;;;;;;14.38;8.18;;;19.80;99.90;;;;;;5057650;28;25060;-69
2022/09/06 06:20:22;;;;;;;11.52;8.02;;;19.90;99.90;;;;;;5054519;28;25048;-72
2022/09/06 06:22:47;;;;;;;19.50;9.13;;;19.90;99.90;;;;;;5068924;28;25073;-72
2022/09/06 06:25:13;;;;;;;13.60;7.75;;;19.90;99.90;;;;;;5073050;28;25068;-72
2022/09/06 06:27:39;;;;;;;12.82;8.88;;;20.00;99.90;;;;;;5077894;28;25063;-72
2022/09/06 06:30:05;;;;;;;17.45;8.63;;;20.10;99.90;;;;;;5070396;28;25077;-69
2022/09/06 06:32:30;;;;;;;11.10;8.35;;;20.10;99.90;;;;;;5062931;28;25113;-70
2022/09/06 06:34:56;;;;;;;10.95;8.18;;;20.10;99.90;;;;;;5059387;28;25147;-72
2022/09/06 06:37:22;;;;;;;13.82;8.55;;;20.10;99.90;;;;;;5056666;28;25110;-70
2022/09/06 06:39:47;;;;;;;11.52;8.15;;;20.10;99.90;;;;;;5055814;28;25056;-71
2022/09/06 06:42:14;;;;;;;12.35;8.07;;;20.20;99.90;;;;;;5055246;28;25066;-71
2022/09/06 06:44:40;;;;;;;14.18;8.57;;;20.20;99.90;;;;;;5052065;28;25080;-71
2022/09/06 06:47:06;;;;;;;12.80;7.72;;;20.10;99.90;;;;;;5062176;28;25102;-71
2022/09/06 06:49:31;;;;;;;11.55;7.72;;;20.00;99.90;;;;;;5054469;28;25057;-72
2022/09/06 06:51:57;;;;;;;10.98;7.60;;;20.00;99.90;;;;;;5060930;28;25055;-70
2022/09/06 06:54:22;;;;;;;13.13;7.47;;;20.00;99.90;;;;;;5052094;28;25063;-70
2022/09/06 06:56:48;;;;;;;10.25;6.90;;;20.00;99.90;;;;;;5055903;28;25059;-70
2022/09/06 06:59:13;;;;;;;9.40;6.50;;;20.10;99.90;;;;;;5054170;28;25054;-71
2022/09/06 07:01:39;;;;;;;10.32;6.60;;;20.00;99.90;;;;;;5050999;28;25153;-71
2022/09/06 07:04:06;;;;;;;10.68;6.70;;;20.00;99.90;;;;;;5057839;28;25069;-71
2022/09/06 07:06:45;;;;;;;17.42;7.75;;;20.20;99.90;;;;;;5056637;28;25096;-71
2022/09/06 07:09:11;;;;;;;10.60;7.20;;;20.20;99.90;;;;;;5062169;28;25087;-71
2022/09/06 07:11:37;;;;;;;11.18;7.65;;;20.10;99.90;;;;;;5069171;28;25147;-72
2022/09/06 07:14:02;;;;;;;12.98;8.20;;;20.00;99.90;;;;;;5062037;28;25105;-70
2022/09/06 07:16:28;;;;;;;14.10;7.15;;;20.10;99.90;;;;;;5065287;28;25078;-71
2022/09/06 07:18:54;;;;;;;10.82;7.03;;;20.10;99.90;;;;;;5058133;28;25046;-70
2022/09/06 07:21:25;;;;;;;11.02;7.18;;;20.20;99.90;;;;;;5063033;28;25079;-71
2022/09/06 07:23:54;;;;;;;9.85;7.60;;;20.20;99.90;;;;;;5059951;28;25118;-72
2022/09/06 07:26:22;;;;;;;13.27;7.53;;;20.20;99.90;;;;;;5055716;28;25093;-71
2022/09/06 07:28:54;;;;;;;10.98;7.55;;;20.30;99.90;;;;;;5053856;28;25134;-72
2022/09/06 07:31:20;;;;;;;14.07;8.38;;;20.30;99.90;;;;;;5060352;28;25157;-72
2022/09/06 07:33:46;;;;;;;13.45;7.80;;;20.40;99.90;;;;;;5055022;28;25057;-72
2022/09/06 07:36:11;;;;;;;14.60;7.43;;;20.50;99.90;;;;;;5053750;28;25075;-71
2022/09/06 07:38:37;;;;;;;10.75;6.85;;;20.50;99.90;;;;;;5068909;28;25099;-72
2022/09/06 07:41:05;;;;;;;11.93;7.72;;;20.60;99.90;;;;;;5072128;28;25131;-73
2022/09/06 07:43:32;;;;;;;14.88;7.18;;;20.60;99.90;;;;;;5061460;28;25078;-71
2022/09/06 07:46:16;;;;;;;6.80;5.72;;;20.70;99.90;;;;;;5064687;28;25118;-72
2022/09/06 07:48:44;;;;;;;8.00;6.20;;;20.70;99.90;;;;;;5060833;28;25081;-71
2022/09/06 07:51:15;;;;;;;9.63;6.85;;;20.70;99.90;;;;;;5053169;28;25098;-72
2022/09/06 07:53:43;;;;;;;6.63;5.95;;;20.80;99.90;;;;;;5064191;28;25111;-71
2022/09/06 07:56:11;;;;;;;13.88;6.75;;;21.00;99.90;;;;;;5071824;28;25141;-70
2022/09/06 07:58:38;;;;;;;10.85;7.05;;;21.00;99.90;;;;;;5057582;28;25136;-74
2022/09/06 08:01:34;;;;;;;8.38;6.38;;;21.10;99.90;;;;;;5069652;28;25128;-71
2022/09/06 08:04:13;;;;;;;10.38;6.18;;;21.10;99.90;;;;;;5056172;28;25072;-71
2022/09/06 08:06:41;;;;;;;10.93;6.93;;;21.00;99.90;;;;;;5060797;28;25097;-70
2022/09/06 08:09:08;;;;;;;12.63;7.28;;;21.10;99.90;;;;;;5063314;28;25100;-71
2022/09/06 08:11:35;;;;;;;11.00;7.10;;;21.20;99.90;;;;;;5060779;28;25082;-72
2022/09/06 08:14:04;;;;;;;9.68;6.93;;;21.30;99.90;;;;;;5049926;28;25065;-71
2022/09/06 08:16:31;;;;;;;12.25;7.07;;;21.40;99.90;;;;;;5057522;28;25065;-71
2022/09/06 08:18:59;;;;;;;10.30;6.65;;;21.50;99.90;;;;;;5054206;28;25148;-71
2022/09/06 08:21:31;;;;;;;8.77;6.07;;;21.70;99.90;;;;;;5062043;28;25098;-72
2022/09/06 08:24:05;;;;;;;12.50;6.50;;;21.80;99.90;;;;;;5053085;28;25051;-72
2022/09/06 08:26:33;;;;;;;10.15;5.88;;;22.10;99.90;;;;;;5049416;28;25066;-72
2022/09/06 08:29:04;;;;;;;10.00;5.78;;;22.20;99.90;;;;;;5065688;28;25165;-71
2022/09/06 08:31:31;;;;;;;10.50;5.82;;;22.20;99.90;;;;;;5055872;28;25075;-72
2022/09/06 08:33:58;;;;;;;6.97;5.28;;;22.40;99.90;;;;;;5051784;28;25076;-72
2022/09/06 08:36:28;;;;;;;9.30;6.25;;;22.50;99.90;;;;;;5050611;28;25085;-73
2022/09/06 08:38:57;;;;;;;8.35;5.60;;;23.00;99.90;;;;;;5054889;28;25168;-72
2022/09/06 08:41:45;;;;;;;6.75;5.57;;;23.30;99.90;;;;;;5050492;28;25050;-73
2022/09/06 08:44:14;;;;;;;7.35;5.40;;;23.40;99.90;;;;;;5055569;28;25080;-72
2022/09/06 08:47:04;;;;;;;8.05;5.80;;;23.10;99.90;;;;;;5065360;28;25139;-73
2022/09/06 08:49:34;;;;;;;12.82;5.95;;;22.90;99.90;;;;;;5045391;28;25059;-74
2022/09/06 08:52:05;;;;;;;13.85;6.05;;;23.10;99.90;;;;;;5046238;28;25175;-73
2022/09/06 08:54:46;;;;;;;7.70;5.20;;;23.20;99.90;;;;;;5061639;28;25062;-73
2022/09/06 08:57:24;;;;;;;11.10;5.68;;;22.80;99.90;;;;;;5061973;28;25053;-74
2022/09/06 08:59:54;;;;;;;8.63;5.38;;;23.10;99.90;;;;;;5060728;28;25071;-72
2022/09/06 09:02:20;;;;;;;6.85;5.03;;;23.20;99.90;;;;;;5066588;28;25068;-73
2022/09/06 09:04:50;;;;;;;19.33;5.90;;;23.30;99.90;;;;;;5049788;28;25048;-72
2022/09/06 09:07:26;;;;;;;8.57;5.15;;;23.40;99.90;;;;;;5054692;28;25082;-73
2022/09/06 09:09:54;;;;;;;10.07;5.88;;;23.60;99.90;;;;;;5049787;28;25058;-75
2022/09/06 09:12:22;;;;;;;8.10;4.95;;;23.70;99.90;;;;;;5054087;28;25050;-73
2022/09/06 09:14:56;;;;;;;7.47;5.25;;;23.70;99.90;;;;;;5062411;28;25152;-73
2022/09/06 09:17:26;;;;;;;11.68;6.30;;;23.80;99.90;;;;;;5065874;28;25142;-73
2022/09/06 09:19:51;;;;;;;9.02;5.75;;;23.60;99.90;;;;;;5052475;28;25072;-73
2022/09/06 09:22:18;;;;;;;10.32;6.10;;;23.60;99.90;;;;;;5066969;28;25081;-73
2022/09/06 09:24:46;;;;;;;9.80;6.38;;;23.70;99.90;;;;;;5064207;28;25058;-75
2022/09/06 09:27:15;;;;;;;10.20;5.78;;;23.70;99.90;;;;;;5055908;28;25127;-72
2022/09/06 09:29:59;;;;;;;11.52;6.22;;;23.50;99.90;;;;;;5054738;28;25070;-71
2022/09/06 09:32:39;;;;;;;9.07;6.15;;;23.70;99.90;;;;;;5057069;28;25063;-74
2022/09/06 09:35:31;;;;;;;9.80;6.80;;;23.60;99.90;;;;;;5070407;28;25092;-73
2022/09/06 09:38:02;;;;;;;9.25;6.30;;;23.30;99.90;;;;;;5059097;28;25062;-74
2022/09/06 09:40:32;;;;;;;13.10;6.57;;;23.30;99.90;;;;;;5065815;28;25067;-71
2022/09/06 09:43:14;;;;;;;11.38;6.35;;;23.40;99.90;;;;;;5058898;28;25158;-71
2022/09/06 09:45:40;;;;;;;11.60;6.00;;;23.40;99.90;;;;;;5053835;28;25130;-72
2022/09/06 09:48:23;;;;;;;10.70;6.28;;;23.60;99.90;;;;;;5053186;28;25133;-74
2022/09/06 09:50:49;;;;;;;7.90;5.68;;;23.70;99.90;;;;;;5053634;28;25184;-73
2022/09/06 09:53:18;;;;;;;13.93;6.20;;;23.70;99.90;;;;;;5055234;28;25100;-74
2022/09/06 09:55:44;;;;;;;8.90;5.88;;;24.00;99.90;;;;;;5061351;28;25076;-73
2022/09/06 09:58:34;;;;;;;10.13;6.65;;;23.80;99.90;;;;;;5056455;28;25084;-71
2022/09/06 10:01:16;;;;;;;11.00;5.78;;;23.60;99.90;;;;;;5056241;28;25062;-74
2022/09/06 10:03:42;;;;;;;8.18;5.75;;;23.50;99.90;;;;;;5060986;28;25062;-73
2022/09/06 10:06:12;;;;;;;9.10;6.03;;;23.50;99.90;;;;;;5056135;28;25070;-73
2022/09/06 10:08:41;;;;;;;11.23;5.85;;;23.40;99.90;;;;;;5059506;28;25059;-76
2022/09/06 10:11:13;;;;;;;8.25;5.63;;;23.50;99.90;;;;;;5059767;28;25068;-73
2022/09/06 10:13:41;;;;;;;13.93;6.25;;;23.50;99.90;;;;;;5058131;28;25064;-74
2022/09/06 10:16:08;;;;;;;12.55;6.05;;;23.70;99.90;;;;;;5058995;28;25053;-73
2022/09/06 10:18:42;;;;;;;9.63;6.65;;;23.80;99.90;;;;;;5055201;28;25110;-77
2022/09/06 10:21:16;;;;;;;11.63;6.18;;;23.70;99.90;;;;;;5050916;28;25128;-74
2022/09/06 10:24:06;;;;;;;7.75;5.90;;;23.70;99.90;;;;;;5058045;28;25060;-75
2022/09/06 10:26:55;;;;;;;8.27;5.10;;;23.80;99.90;;;;;;5066645;28;25179;-74
2022/09/06 10:29:39;;;;;;;8.60;5.35;;;24.00;99.90;;;;;;5066085;28;25071;-73
2022/09/06 10:32:31;;;;;;;11.23;5.38;;;24.10;99.90;;;;;;5065451;28;25159;-74
2022/09/06 10:35:35;;;;;;;7.30;3.53;;;24.10;99.90;;;;;;5062898;28;25069;-74
2022/09/06 10:38:12;;;;;;;5.28;3.15;;;24.10;99.90;;;;;;5062780;28;25059;-76
2022/09/06 10:41:07;;;;;;;7.93;4.15;;;24.20;99.90;;;;;;5061060;28;25147;-79
2022/09/06 10:43:47;;;;;;;11.98;4.72;;;24.10;99.90;;;;;;5052729;28;25070;-72
2022/09/06 10:46:20;;;;;;;6.35;4.38;;;24.00;99.90;;;;;;5066720;28;25062;-75
2022/09/06 10:48:46;;;;;;;9.18;4.80;;;24.00;99.90;;;;;;5067722;28;25063;-75
2022/09/06 10:51:30;;;;;;;13.90;5.93;;;24.10;99.90;;;;;;5065418;28;25090;-73
2022/09/06 10:54:06;;;;;;;9.13;4.63;;;24.10;99.90;;;;;;5066123;28;25067;-70
2022/09/06 10:56:39;;;;;;;7.18;5.50;;;24.30;99.90;;;;;;5063610;28;25102;-75
2022/09/06 10:59:29;;;;;;;13.40;5.93;;;24.20;99.90;;;;;;5071291;28;25058;-73
2022/09/06 11:02:13;;;;;;;11.68;6.80;;;24.20;99.90;;;;;;5065455;28;25063;-73
2022/09/06 11:04:41;;;;;;;12.10;6.43;;;24.10;99.90;;;;;;5070236;28;25065;-73
2022/09/06 11:07:36;;;;;;;16.20;7.57;;;24.10;99.90;;;;;;5050522;28;25055;-73
2022/09/06 11:10:31;;;;;;;9.88;6.53;;;24.20;99.90;;;;;;5053090;28;25063;-74
2022/09/06 11:13:08;;;;;;;9.23;6.38;;;24.40;99.90;;;;;;5055758;28;25057;-75
2022/09/06 11:16:09;;;;;;;13.10;7.47;;;24.70;99.90;;;;;;5051266;28;25091;-73
2022/09/06 11:18:48;;;;;;;13.43;7.70;;;24.70;99.90;;;;;;5048024;28;25081;-75
2022/09/06 11:21:35;;;;;;;10.77;6.85;;;24.80;99.90;;;;;;5050282;28;25111;-74
2022/09/06 11:24:26;;;;;;;9.80;6.43;;;25.00;99.90;;;;;;5057139;28;25128;-74
2022/09/06 11:27:09;;;;;;;9.07;6.30;;;25.20;99.90;;;;;;5061160;28;25092;-74
2022/09/06 11:29:40;;;;;;;9.57;5.82;;;25.30;99.90;;;;;;5066174;28;25056;-73
2022/09/06 11:32:25;;;;;;;7.05;5.05;;;25.40;99.90;;;;;;5070782;28;25103;-73
2022/09/06 11:34:54;;;;;;;14.02;7.35;;;25.70;99.90;;;;;;5074452;28;25063;-74
2022/09/06 11:37:29;;;;;;;9.52;5.63;;;25.90;99.90;;;;;;5090404;28;25072;-74
2022/09/06 11:40:12;;;;;;;14.00;7.43;;;26.10;99.90;;;;;;5080857;28;25045;-75
2022/09/06 11:42:43;;;;;;;16.38;7.20;;;26.20;99.90;;;;;;5084293;28;25071;-74
2022/09/06 11:45:19;;;;;;;9.23;6.57;;;26.40;99.90;;;;;;5082237;28;25058;-77
2022/09/06 11:47:47;;;;;;;10.85;6.75;;;26.50;99.90;;;;;;5067071;28;25054;-75
2022/09/06 11:50:25;;;;;;;8.38;5.50;;;27.00;99.90;;;;;;5068366;28;25062;-74
2022/09/06 11:53:06;;;;;;;8.63;5.60;;;27.20;99.90;;;;;;5066473;28;25081;-76
2022/09/06 11:55:43;;;;;;;7.97;5.72;;;27.40;99.90;;;;;;5062545;28;25062;-75
2022/09/06 11:58:41;;;;;;;5.95;4.38;;;27.60;99.90;;;;;;5060637;28;25067;-74
2022/09/06 12:01:17;;;;;;;7.15;5.32;;;27.60;99.90;;;;;;5064087;28;25067;-74
2022/09/06 12:03:52;;;;;;;7.88;3.47;;;27.10;99.90;;;;;;5063677;28;25095;-75
2022/09/06 12:06:30;;;;;;;6.22;3.35;;;26.70;99.90;;;;;;5061043;28;25140;-73
2022/09/06 12:08:56;;;;;;;21.30;5.20;;;27.30;99.90;;;;;;5052498;28;25096;-75
2022/09/06 12:11:41;;;;;;;8.77;4.30;;;27.20;99.90;;;;;;5059008;28;25091;-72
2022/09/06 12:14:25;;;;;;;5.00;3.50;;;27.60;99.90;;;;;;5061301;28;25063;-75
2022/09/06 12:16:59;;;;;;;4.82;3.03;;;28.20;99.90;;;;;;5069670;28;25128;-73
2022/09/06 12:19:43;;;;;;;7.97;4.07;;;27.90;99.90;;;;;;5054380;28;25063;-74
2022/09/06 12:22:26;;;;;;;5.18;4.07;;;27.30;99.90;;;;;;5067142;28;25073;-74
2022/09/06 12:24:54;;;;;;;5.57;2.40;;;27.70;99.90;;;;;;5053274;28;25063;-74
2022/09/06 12:27:25;;;;;;;7.43;3.38;;;28.10;99.90;;;;;;5069208;28;25100;-77
2022/09/06 12:29:53;;;;;;;4.57;2.80;;;28.10;99.90;;;;;;5060353;28;25068;-73
2022/09/06 12:32:24;;;;;;;7.75;2.60;;;28.20;99.90;;;;;;5061720;28;25106;-74
2022/09/06 12:34:51;;;;;;;6.40;2.60;;;28.00;99.90;;;;;;5061214;28;25058;-73
2022/09/06 12:37:33;;;;;;;2.70;1.70;;;27.80;99.90;;;;;;5052732;28;25076;-75
2022/09/06 12:39:59;;;;;;;3.10;2.20;;;28.00;99.90;;;;;;5066374;28;25062;-76
2022/09/06 12:42:25;;;;;;;3.97;2.13;;;27.70;99.90;;;;;;5059434;28;25151;-74
2022/09/06 12:44:52;;;;;;;4.13;2.30;;;27.40;99.90;;;;;;5061337;28;25041;-74
2022/09/06 12:47:31;;;;;;;5.40;1.90;;;27.80;99.90;;;;;;5059153;28;25075;-75
2022/09/06 12:50:07;;;;;;;4.78;1.90;;;27.60;99.90;;;;;;5058440;28;25065;-73
2022/09/06 12:52:33;;;;;;;5.70;2.47;;;27.60;99.90;;;;;;5057168;28;25116;-74
2022/09/06 12:54:58;;;;;;;2.88;2.00;;;27.80;99.90;;;;;;5057851;28;25088;-74
2022/09/06 12:57:25;;;;;;;5.32;1.60;;;27.50;99.90;;;;;;5068376;28;25087;-76
2022/09/06 12:59:55;;;;;;;5.38;1.50;;;27.80;99.90;;;;;;5066481;28;25104;-75
2022/09/06 13:02:39;;;;;;;4.38;1.40;;;28.20;99.90;;;;;;5056788;28;25134;-76
2022/09/06 13:05:09;;;;;;;3.08;1.67;;;27.30;99.90;;;;;;5064250;28;25048;-75